Buzzards Bay, MA (02532)

3:48 PM EDT on September 03, 2015 (GMT -0400)
Point Independence | | Change Station
CLOSE
Current Station
Personal Weather Station
Location: Buzzards Bay, MA
Elevation: 13 ft
Nearby Weather Stations

Elev 13 ft 41.74 °N, 70.65 °W | Updated 3 seconds ago

Partly Cloudy
Partly Cloudy
--
Feels Like --
N
1.0
Wind Variable Wind from ESE
Gusts 2.0 mph

Today
High -- | Low -- °F
--% Chance of Precip.
Yesterday
High -- | Low -- °F
Precip. -- in
6:09 AM 7:12 PM
Waning Gibbous, 67% visible
Pressure 29.84 in
Visibility 10.0 miles
Clouds Overcast 2800 ft
Dew Point Not available.
Humidity Not available.
Rainfall 0.00 in
Snow Depth Not available.
UV 2 out of 12
Pollen 7.90 out of 12
Air Quality Not available.
Flu Activity Not available.
METAR KFMH 031935Z AUTO VRB05KT 10SM OVC028 27/21 A2984 RMK AO2 PWINO
Pressure 29.84 in
Visibility 10.0 miles
Clouds Overcast 2800 ft
Dew Point Not available.
Humidity Not available.
Rainfall 0.00 in
Snow Depth Not available.
UV 2 out of 12
Pollen 7.90 out of 12
Air Quality Not available.
Flu Activity Not available.
METAR KFMH 031935Z AUTO VRB05KT 10SM OVC028 27/21 A2984 RMK AO2 PWINO

10-Day Weather Forecast

×

Almanac

Astronomy

Sep. 03, 2015 Rise Set
Actual Time
Civil Twilight
Nautical Twilight
Astronomical Twilight
Moon
Length of Visible Light
Length of Day
Tomorrow will be .
, % of the Moon is Illuminated

Today's Extremes

State Highs State Lows

Community

WunderPhotos

Upload Photos

1,852,017 photos uploaded!

WunderBlogs® & News

Nearby

Air Quality

  Air Quality AQ Index Pollutant
Not available.

Snow Depth

Station Depth Elevation

Earthquake Activity

City Distance Mag. Time & Date
Minimum magnitude displayed is 2.5.

Coastal Water Temperatures

Place Temperature

Stations

Nearby Weather Stations

Station Location Temp. Windchill Dew Point Humidity Wind Precip. Elev Updated Type